createdAt,value
2016-10-29T00:00:54.283Z,82.34
2016-10-29T00:01:54.298Z,82.57
2016-10-29T00:02:54.317Z,82.43
2016-10-29T00:03:54.354Z,82.53
2016-10-29T00:04:54.354Z,82.06
2016-10-29T00:05:54.385Z,81.96
2016-10-29T00:06:54.393Z,82.57
2016-10-29T00:07:54.410Z,82.72
2016-10-29T00:08:54.424Z,82.34
2016-10-29T00:09:54.444Z,81.86
2016-10-29T00:10:54.463Z,82.15
2016-10-29T00:11:54.478Z,82.06
2016-10-29T00:12:54.496Z,82.43
2016-10-29T00:13:54.516Z,82.72
2016-10-29T00:14:54.532Z,81.96
2016-10-29T00:15:54.552Z,82.29
2016-10-29T00:16:54.570Z,81.77
2016-10-29T00:17:54.584Z,81.86
2016-10-29T00:18:54.604Z,82.15
2016-10-29T00:19:54.622Z,82.15
2016-10-29T00:20:54.639Z,82.15
2016-10-29T00:21:54.659Z,81.86
2016-10-29T00:22:54.674Z,81.96
2016-10-29T00:23:54.693Z,82.43
2016-10-29T00:24:54.712Z,81.77
2016-10-29T00:25:54.729Z,81.86
2016-10-29T00:26:54.744Z,81.86
2016-10-29T00:27:54.768Z,81.77
2016-10-29T00:28:54.783Z,81.86
2016-10-29T00:29:54.801Z,81.86
2016-10-29T00:30:54.820Z,81.77
2016-10-29T00:31:54.839Z,81.86
2016-10-29T00:32:54.854Z,81.48
2016-10-29T00:33:54.879Z,81.96
2016-10-29T00:34:54.891Z,81.67
2016-10-29T00:35:54.909Z,81.58
2016-10-29T00:36:54.929Z,81.67
2016-10-29T00:37:54.953Z,81.38
2016-10-29T00:38:54.963Z,81.48
2016-10-29T00:39:54.979Z,81.2
2016-10-29T00:40:55.001Z,81.67
2016-10-29T00:41:55.020Z,81.48
2016-10-29T00:42:55.042Z,81.48
2016-10-29T00:43:55.056Z,81.48
2016-10-29T00:44:55.076Z,81.48
2016-10-29T00:45:55.089Z,81.58
2016-10-29T00:46:55.105Z,81.58
2016-10-29T00:47:55.130Z,81.48
2016-10-29T00:48:55.145Z,81.48
2016-10-29T00:49:55.167Z,81.29
2016-10-29T00:50:55.176Z,81.48
2016-10-29T00:51:55.194Z,81.77
2016-10-29T00:52:55.218Z,81.58
2016-10-29T00:53:55.235Z,81.38
2016-10-29T00:54:55.254Z,81.58
2016-10-29T00:55:55.275Z,81.48
2016-10-29T00:56:55.284Z,81.58
2016-10-29T00:57:55.301Z,81.38
2016-10-29T00:58:55.321Z,81.48
2016-10-29T00:59:55.338Z,81.38
2016-10-29T01:00:55.361Z,81.58
2016-10-29T01:01:55.377Z,81.58
2016-10-29T01:02:55.395Z,81.58
2016-10-29T01:03:55.416Z,81.58
2016-10-29T01:04:55.427Z,81.67
2016-10-29T01:05:55.444Z,81.67
2016-10-29T01:06:55.464Z,81.2
2016-10-29T01:07:55.485Z,81.1
2016-10-29T01:08:55.502Z,81.48
2016-10-29T01:09:55.517Z,81.2
2016-10-29T01:10:55.534Z,81.1
2016-10-29T01:11:55.551Z,81.2
2016-10-29T01:12:55.568Z,81.01
2016-10-29T01:13:55.602Z,81.1
2016-10-29T01:14:55.604Z,81.38
2016-10-29T01:15:55.621Z,81.2
2016-10-29T01:16:55.638Z,81.1
2016-10-29T01:17:55.655Z,81.01
2016-10-29T01:18:55.674Z,81.01
2016-10-29T01:19:55.695Z,81.38
2016-10-29T01:20:55.719Z,81.2
2016-10-29T01:21:55.735Z,80.91
2016-10-29T01:22:55.745Z,81.2
2016-10-29T01:23:55.763Z,81.01
2016-10-29T01:24:55.783Z,81.01
2016-10-29T01:25:55.804Z,81.01
2016-10-29T01:26:55.817Z,81.2
2016-10-29T01:27:55.837Z,81.01
2016-10-29T01:28:55.855Z,81.01
2016-10-29T01:29:55.871Z,81.01
2016-10-29T01:30:55.887Z,81.15
2016-10-29T01:31:55.907Z,81.06
2016-10-29T01:32:55.924Z,80.96
2016-10-29T01:33:55.942Z,80.96
2016-10-29T01:34:55.958Z,80.87
2016-10-29T01:35:55.981Z,81.06
2016-10-29T01:36:56.043Z,81.06
2016-10-29T01:37:56.335Z,81.06
2016-10-29T01:38:56.030Z,80.87
2016-10-29T01:39:56.296Z,80.77
2016-10-29T01:40:56.064Z,81.06
2016-10-29T01:41:56.089Z,81.15
2016-10-29T01:42:56.106Z,80.87
2016-10-29T01:43:56.122Z,80.96
2016-10-29T01:44:56.137Z,80.87
2016-10-29T01:45:56.152Z,80.87
2016-10-29T01:46:56.173Z,80.68
2016-10-29T01:47:56.191Z,81.06
2016-10-29T01:48:56.206Z,81.06
2016-10-29T01:49:56.224Z,81.06
2016-10-29T01:50:56.241Z,81.15
2016-10-29T01:51:56.258Z,81.06
2016-10-29T01:52:56.274Z,80.77
2016-10-29T01:53:56.294Z,81.06
2016-10-29T01:54:56.310Z,80.96
2016-10-29T01:55:56.328Z,81.06
2016-10-29T01:56:56.346Z,80.87
2016-10-29T01:57:56.364Z,80.96
2016-10-29T01:58:56.383Z,81.15
2016-10-29T01:59:56.404Z,80.96
2016-10-29T02:00:56.421Z,80.96
2016-10-29T02:01:56.439Z,80.96
2016-10-29T02:02:56.456Z,80.49
2016-10-29T02:03:56.476Z,80.96
2016-10-29T02:04:56.489Z,80.96
2016-10-29T02:05:56.506Z,80.96
2016-10-29T02:06:56.524Z,80.96
2016-10-29T02:07:56.540Z,80.49
2016-10-29T02:08:56.559Z,80.96
2016-10-29T02:09:56.579Z,81.25
2016-10-29T02:10:56.593Z,81.15
2016-10-29T02:11:56.611Z,80.96
2016-10-29T02:12:56.628Z,81.06
2016-10-29T02:13:56.649Z,80.96
2016-10-29T02:14:56.667Z,81.15
2016-10-29T02:15:56.681Z,80.96
2016-10-29T02:16:56.698Z,80.96
2016-10-29T02:17:56.723Z,81.15
2016-10-29T02:18:56.738Z,81.25
2016-10-29T02:19:56.750Z,81.44
2016-10-29T02:20:56.779Z,81.44
2016-10-29T02:21:56.789Z,81.44
2016-10-29T02:22:56.807Z,81.54
2016-10-29T02:23:56.822Z,81.44
2016-10-29T02:24:56.838Z,81.15
2016-10-29T02:25:56.854Z,81.35
2016-10-29T02:26:56.872Z,81.54
2016-10-29T02:27:56.890Z,81.63
2016-10-29T02:28:56.908Z,81.54
2016-10-29T02:29:56.929Z,81.63
2016-10-29T02:30:56.945Z,81.35
2016-10-29T02:31:56.960Z,81.63
2016-10-29T02:32:56.978Z,81.44
2016-10-29T02:33:56.997Z,81.54
2016-10-29T02:34:57.014Z,81.54
2016-10-29T02:35:57.033Z,81.54
2016-10-29T02:36:57.053Z,81.44
2016-10-29T02:37:57.070Z,81.63
2016-10-29T02:38:57.090Z,81.35
2016-10-29T02:39:57.100Z,81.44
2016-10-29T02:40:57.120Z,81.44
2016-10-29T02:41:57.135Z,81.35
2016-10-29T02:42:57.153Z,81.35
2016-10-29T02:43:57.177Z,81.73
2016-10-29T02:44:57.188Z,81.15
2016-10-29T02:45:57.205Z,81.15
2016-10-29T02:46:57.226Z,81.63
2016-10-29T02:47:57.239Z,81.63
2016-10-29T02:48:57.258Z,81.44
2016-10-29T02:49:57.274Z,81.44
2016-10-29T02:50:57.294Z,81.44
2016-10-29T02:51:57.308Z,81.54
2016-10-29T02:52:57.326Z,81.54
2016-10-29T02:53:57.345Z,81.35
2016-10-29T02:54:57.366Z,81.54
2016-10-29T02:55:57.378Z,81.44
2016-10-29T02:56:57.395Z,81.54
2016-10-29T02:57:57.414Z,81.35
2016-10-29T02:58:57.428Z,81.54
2016-10-29T02:59:57.450Z,81.54
2016-10-29T03:00:57.467Z,81.25
2016-10-29T03:01:57.485Z,81.44
2016-10-29T03:02:57.503Z,81.44
2016-10-29T03:03:57.522Z,81.44
2016-10-29T03:04:57.539Z,81.44
2016-10-29T03:05:57.554Z,81.35
2016-10-29T03:06:57.570Z,81.54
2016-10-29T03:07:57.601Z,81.25
2016-10-29T03:08:57.605Z,81.54
2016-10-29T03:09:57.621Z,81.35
2016-10-29T03:10:57.643Z,81.35
2016-10-29T03:11:57.657Z,81.35
2016-10-29T03:12:57.676Z,81.44
2016-10-29T03:13:57.690Z,81.44
2016-10-29T03:14:57.717Z,81.4
2016-10-29T03:15:57.736Z,81.49
2016-10-29T03:16:57.742Z,81.4
2016-10-29T03:17:57.763Z,81.21
2016-10-29T03:18:57.784Z,81.15
2016-10-29T03:19:57.805Z,81.06
2016-10-29T03:20:57.813Z,81.44
2016-10-29T03:21:57.833Z,81.54
2016-10-29T03:22:57.848Z,81.35
2016-10-29T03:23:57.865Z,81.02
2016-10-29T03:24:57.883Z,81.44
2016-10-29T03:25:57.903Z,81.3
2016-10-29T03:26:57.917Z,81.63
2016-10-29T03:27:57.933Z,81.54
2016-10-29T03:28:57.954Z,81.44
2016-10-29T03:29:57.969Z,81.21
2016-10-29T03:30:57.990Z,81.44
2016-10-29T03:31:58.003Z,81.21
2016-10-29T03:32:58.022Z,81.12
2016-10-29T03:33:58.038Z,81.3
2016-10-29T03:34:58.053Z,81.4
2016-10-29T03:35:58.088Z,81.49
2016-10-29T03:36:58.090Z,81.4
2016-10-29T03:37:58.110Z,81.35
2016-10-29T03:38:58.124Z,81.4
2016-10-29T03:39:58.143Z,81.35
2016-10-29T03:40:58.160Z,81.35
2016-10-29T03:41:58.179Z,81.63
2016-10-29T03:42:58.194Z,81.82
2016-10-29T03:43:58.211Z,81.4
2016-10-29T03:44:58.232Z,81.4
2016-10-29T03:45:58.245Z,81.21
2016-10-29T03:46:58.307Z,81.44
2016-10-29T03:47:58.279Z,81.4
2016-10-29T03:48:58.302Z,81.21
2016-10-29T03:49:58.318Z,81.25
2016-10-29T03:50:58.335Z,81.21
2016-10-29T03:51:58.347Z,81.3
2016-10-29T03:52:58.367Z,81.4
2016-10-29T03:53:58.384Z,81.59
2016-10-29T03:54:58.402Z,81.4
2016-10-29T03:55:58.417Z,81.49
2016-10-29T03:56:58.435Z,81.4
2016-10-29T03:57:58.452Z,81.4
2016-10-29T03:58:58.470Z,81.59
2016-10-29T03:59:58.490Z,81.4
2016-10-29T04:00:58.504Z,81.4
2016-10-29T04:01:58.526Z,81.21
2016-10-29T04:02:58.538Z,81.49
2016-10-29T04:03:58.574Z,81.4
2016-10-29T04:04:58.572Z,81.59
2016-10-29T04:05:58.591Z,81.49
2016-10-29T04:06:58.606Z,81.4
2016-10-29T04:07:58.624Z,81.4
2016-10-29T04:08:58.640Z,81.4
2016-10-29T04:09:58.758Z,81.3
2016-10-29T04:10:58.675Z,81.4
2016-10-29T04:11:58.697Z,81.3
2016-10-29T04:12:58.711Z,81.59
2016-10-29T04:13:58.729Z,81.59
2016-10-29T04:14:58.744Z,81.78
2016-10-29T04:15:58.764Z,81.68
2016-10-29T04:16:58.778Z,81.78
2016-10-29T04:17:58.796Z,81.78
2016-10-29T04:18:58.818Z,81.97
2016-10-29T04:19:58.841Z,81.4
2016-10-29T04:20:58.852Z,81.3
2016-10-29T04:21:58.866Z,81.3
2016-10-29T04:22:58.881Z,81.3
2016-10-29T04:23:58.900Z,81.59
2016-10-29T04:24:59.023Z,81.4
2016-10-29T04:25:58.932Z,81.4
2016-10-29T04:26:58.950Z,81.3
2016-10-29T04:27:58.967Z,81.3
2016-10-29T04:28:59.017Z,81.59
2016-10-29T04:29:59.000Z,81.59
2016-10-29T04:30:59.018Z,81.3
2016-10-29T04:31:59.035Z,81.4
2016-10-29T04:32:59.054Z,81.4
2016-10-29T04:33:59.069Z,81.4
2016-10-29T04:34:59.086Z,81.21
2016-10-29T04:35:59.103Z,81.4
2016-10-29T04:36:59.122Z,81.4
2016-10-29T04:37:59.137Z,81.49
2016-10-29T04:38:59.154Z,81.21
2016-10-29T04:39:59.179Z,81.4
2016-10-29T04:40:59.194Z,81.12
2016-10-29T04:41:59.207Z,81.4
2016-10-29T04:42:59.230Z,81.21
2016-10-29T04:43:59.244Z,81.4
2016-10-29T04:44:59.258Z,81.3
2016-10-29T04:45:59.276Z,81.12
2016-10-29T04:46:59.296Z,81.4
2016-10-29T04:47:59.347Z,81.4
2016-10-29T04:48:59.331Z,81.59
2016-10-29T04:49:59.394Z,81.49
2016-10-29T04:50:59.360Z,81.59
2016-10-29T04:51:59.374Z,81.3
2016-10-29T04:52:59.393Z,81.4
2016-10-29T04:53:59.412Z,81.21
2016-10-29T04:54:59.427Z,81.49
2016-10-29T04:55:59.444Z,81.21
2016-10-29T04:56:59.461Z,81.3
2016-10-29T04:57:59.482Z,81.4
2016-10-29T04:58:59.494Z,81.4
2016-10-29T04:59:59.513Z,81.49
2016-10-29T05:00:59.530Z,81.12
2016-10-29T05:01:59.548Z,81.21
2016-10-29T05:02:59.565Z,81.4
2016-10-29T05:03:59.578Z,81.4
2016-10-29T05:04:59.601Z,81.49
2016-10-29T05:05:59.616Z,81.4
2016-10-29T05:06:59.637Z,81.49
2016-10-29T05:07:59.651Z,81.3
2016-10-29T05:08:59.673Z,81.49
2016-10-29T05:09:59.685Z,81.4
2016-10-29T05:10:59.719Z,81.49
2016-10-29T05:11:59.715Z,81.49
2016-10-29T05:12:59.773Z,81.4
2016-10-29T05:13:59.750Z,81.3
2016-10-29T05:14:59.769Z,81.4
2016-10-29T05:15:59.785Z,81.12
2016-10-29T05:16:59.802Z,81.4
2016-10-29T05:17:59.819Z,81.59
2016-10-29T05:18:59.835Z,81.4
2016-10-29T05:19:59.855Z,81.21
2016-10-29T05:20:59.874Z,81.4
2016-10-29T05:21:59.891Z,81.4
2016-10-29T05:22:59.915Z,81.21
2016-10-29T05:23:59.921Z,81.21
2016-10-29T05:24:59.937Z,81.4
2016-10-29T05:25:59.956Z,81.3
2016-10-29T05:26:59.974Z,81.21
2016-10-29T05:27:59.989Z,81.21
2016-10-29T05:29:00.007Z,81.12
2016-10-29T05:30:00.024Z,81.12
2016-10-29T05:31:00.041Z,81.21
2016-10-29T05:32:00.060Z,81.21
2016-10-29T05:33:00.073Z,81.49
2016-10-29T05:34:00.090Z,81.4
2016-10-29T05:35:00.110Z,81.4
2016-10-29T05:36:00.125Z,81.49
2016-10-29T05:37:00.141Z,81.12
2016-10-29T05:38:00.158Z,81.49
2016-10-29T05:39:00.491Z,81.4
2016-10-29T05:40:00.193Z,81.3
2016-10-29T05:41:00.213Z,81.4
2016-10-29T05:42:00.267Z,81.78
2016-10-29T05:43:00.245Z,81.3
2016-10-29T05:44:00.262Z,81.68
2016-10-29T05:45:00.278Z,81.59
2016-10-29T05:46:00.296Z,81.4
2016-10-29T05:47:00.311Z,81.88
2016-10-29T05:48:00.336Z,81.78
2016-10-29T05:49:00.345Z,81.68
2016-10-29T05:50:00.364Z,81.68
2016-10-29T05:51:00.381Z,81.78
2016-10-29T05:52:00.398Z,81.49
2016-10-29T05:53:00.419Z,81.4
2016-10-29T05:54:00.481Z,81.49
2016-10-29T05:55:00.447Z,81.59
2016-10-29T05:56:00.468Z,81.49
2016-10-29T05:57:00.484Z,81.68
2016-10-29T05:58:00.496Z,82.07
2016-10-29T05:59:00.616Z,81.68
2016-10-29T06:00:00.535Z,81.59
2016-10-29T06:01:00.555Z,81.59
2016-10-29T06:02:00.579Z,82.07
2016-10-29T06:03:00.584Z,82.17
2016-10-29T06:04:00.607Z,81.97
2016-10-29T06:05:00.623Z,82.07
2016-10-29T06:06:00.645Z,81.59
2016-10-29T06:07:00.651Z,81.68
2016-10-29T06:08:00.669Z,81.97
2016-10-29T06:09:00.688Z,81.68
2016-10-29T06:10:00.732Z,81.78
2016-10-29T06:11:00.722Z,82.17
2016-10-29T06:12:00.748Z,81.68
2016-10-29T06:13:00.754Z,81.68
2016-10-29T06:14:00.773Z,81.97
2016-10-29T06:15:00.789Z,81.88
2016-10-29T06:16:00.813Z,81.68
2016-10-29T06:17:00.821Z,81.68
2016-10-29T06:18:00.894Z,82.07
2016-10-29T06:19:00.867Z,82.07
2016-10-29T06:20:00.880Z,82.07
2016-10-29T06:21:00.891Z,82.26
2016-10-29T06:22:00.910Z,81.97
2016-10-29T06:23:00.924Z,81.97
2016-10-29T06:24:00.954Z,82.07
2016-10-29T06:25:00.958Z,82.17
2016-10-29T06:26:00.982Z,82.17
2016-10-29T06:27:00.998Z,81.68
2016-10-29T06:28:01.012Z,81.59
2016-10-29T06:29:01.026Z,81.68
2016-10-29T06:30:01.047Z,81.68
2016-10-29T06:31:01.063Z,81.59
2016-10-29T06:32:01.083Z,82.17
2016-10-29T06:33:01.093Z,81.68
2016-10-29T06:34:01.122Z,82.17
2016-10-29T06:35:01.129Z,81.88
2016-10-29T06:36:01.148Z,81.68
2016-10-29T06:37:01.167Z,81.68
2016-10-29T06:38:01.179Z,81.59
2016-10-29T06:39:01.200Z,82.07
2016-10-29T06:40:01.223Z,81.97
2016-10-29T06:41:01.233Z,81.78
2016-10-29T06:42:01.253Z,82.07
2016-10-29T06:43:01.267Z,82.07
2016-10-29T06:44:01.283Z,81.78
2016-10-29T06:45:01.299Z,82.17
2016-10-29T06:46:01.315Z,81.49
2016-10-29T06:47:01.334Z,81.78
2016-10-29T06:48:01.355Z,81.68
2016-10-29T06:49:01.369Z,81.59
2016-10-29T06:50:01.385Z,81.82
2016-10-29T06:51:01.400Z,81.78
2016-10-29T06:52:01.538Z,81.78
2016-10-29T06:53:01.518Z,81.78
2016-10-29T06:54:01.458Z,81.78
2016-10-29T06:55:01.469Z,81.97
2016-10-29T06:56:01.499Z,81.68
2016-10-29T06:57:01.505Z,82.26
2016-10-29T06:58:01.521Z,82.17
2016-10-29T06:59:01.539Z,81.82
2016-10-29T07:00:01.557Z,81.82
2016-10-29T07:01:01.581Z,82.17
2016-10-29T07:02:01.593Z,82.2
2016-10-29T07:03:01.609Z,81.68
2016-10-29T07:04:01.624Z,81.82
2016-10-29T07:05:01.642Z,82.2
2016-10-29T07:06:01.658Z,81.78
2016-10-29T07:07:01.675Z,82.01
2016-10-29T07:08:01.697Z,81.88
2016-10-29T07:09:01.709Z,81.82
2016-10-29T07:10:01.725Z,81.88
2016-10-29T07:11:01.744Z,81.82
2016-10-29T07:12:01.759Z,82.3
2016-10-29T07:13:01.781Z,81.63
2016-10-29T07:14:01.795Z,82.01
2016-10-29T07:15:01.817Z,81.73
2016-10-29T07:16:01.829Z,81.82
2016-10-29T07:17:01.845Z,81.63
2016-10-29T07:18:01.864Z,82.11
2016-10-29T07:19:01.888Z,81.92
2016-10-29T07:20:01.895Z,81.82
2016-10-29T07:21:01.917Z,81.73
2016-10-29T07:22:01.935Z,81.63
2016-10-29T07:23:01.949Z,81.4
2016-10-29T07:24:01.970Z,81.35
2016-10-29T07:25:01.982Z,81.92
2016-10-29T07:26:02.003Z,81.63
2016-10-29T07:27:02.014Z,81.82
2016-10-29T07:28:02.038Z,81.82
2016-10-29T07:29:02.053Z,81.35
2016-10-29T07:30:02.066Z,81.54
2016-10-29T07:31:02.084Z,81.92
2016-10-29T07:32:02.101Z,81.63
2016-10-29T07:33:02.119Z,81.44
2016-10-29T07:34:02.137Z,81.44
2016-10-29T07:35:02.156Z,81.44
2016-10-29T07:36:02.175Z,81.63
2016-10-29T07:37:02.200Z,81.44
2016-10-29T07:38:02.206Z,81.44
2016-10-29T07:39:02.221Z,81.63
2016-10-29T07:40:02.240Z,81.44
2016-10-29T07:41:02.255Z,81.35
2016-10-29T07:42:02.272Z,81.35
2016-10-29T07:43:02.296Z,81.54
2016-10-29T07:44:02.313Z,81.44
2016-10-29T07:45:02.326Z,81.25
2016-10-29T07:46:02.345Z,81.54
2016-10-29T07:47:02.363Z,81.35
2016-10-29T07:48:02.376Z,81.44
2016-10-29T07:49:02.398Z,81.44
2016-10-29T07:50:02.414Z,81.44
2016-10-29T07:51:02.429Z,81.44
2016-10-29T07:52:02.449Z,81.63
2016-10-29T07:53:02.470Z,81.54
2016-10-29T07:54:02.483Z,81.44
2016-10-29T07:55:02.500Z,81.25
2016-10-29T07:56:02.523Z,81.35
2016-10-29T07:57:02.541Z,81.44
2016-10-29T07:58:02.551Z,81.15
2016-10-29T07:59:02.570Z,81.06
2016-10-29T08:00:02.599Z,81.06
2016-10-29T08:01:02.605Z,81.35
2016-10-29T08:02:02.637Z,81.06
2016-10-29T08:03:02.636Z,81.25
2016-10-29T08:04:02.656Z,81.15
2016-10-29T08:05:02.672Z,81.01
2016-10-29T08:06:02.692Z,81.2
2016-10-29T08:07:02.707Z,81.1
2016-10-29T08:08:02.734Z,81.1
2016-10-29T08:09:02.742Z,80.72
2016-10-29T08:10:02.758Z,81.01
2016-10-29T08:11:02.776Z,80.91
2016-10-29T08:12:02.794Z,80.81
2016-10-29T08:13:02.809Z,80.91
2016-10-29T08:14:02.841Z,80.68
2016-10-29T08:15:02.847Z,81.01
2016-10-29T08:16:02.870Z,81.01
2016-10-29T08:17:02.876Z,80.91
2016-10-29T08:18:02.898Z,80.91
2016-10-29T08:19:02.913Z,80.91
2016-10-29T08:20:03.046Z,80.81
2016-10-29T08:21:02.948Z,80.72
2016-10-29T08:22:02.982Z,81.01
2016-10-29T08:23:02.985Z,80.62
2016-10-29T08:24:03.008Z,80.72
2016-10-29T08:25:03.021Z,80.91
2016-10-29T08:26:03.042Z,80.91
2016-10-29T08:27:03.055Z,80.91
2016-10-29T08:28:03.084Z,80.43
2016-10-29T08:29:03.090Z,80.62
2016-10-29T08:30:03.173Z,80.91
2016-10-29T08:31:03.127Z,80.43
2016-10-29T08:32:03.141Z,80.53
2016-10-29T08:33:03.158Z,80.33
2016-10-29T08:34:03.181Z,80.15
2016-10-29T08:35:03.193Z,79.96
2016-10-29T08:36:03.226Z,80.62
2016-10-29T08:37:03.227Z,79.96
2016-10-29T08:38:03.253Z,79.96
2016-10-29T08:39:03.264Z,80.62
2016-10-29T08:40:03.381Z,80.33
2016-10-29T08:41:03.390Z,80.33
2016-10-29T08:42:03.420Z,80.05
2016-10-29T08:43:03.334Z,80.43
2016-10-29T08:44:03.366Z,79.86
2016-10-29T08:45:03.369Z,80.24
2016-10-29T08:46:03.391Z,79.86
2016-10-29T08:47:03.408Z,80.43
2016-10-29T08:48:03.421Z,79.77
2016-10-29T08:49:03.440Z,80.05
2016-10-29T08:50:03.458Z,80.15
2016-10-29T08:51:03.475Z,79.86
2016-10-29T08:52:03.497Z,80.05
2016-10-29T08:53:03.511Z,79.77
2016-10-29T08:54:03.526Z,79.38
2016-10-29T08:55:03.545Z,79.48
2016-10-29T08:56:03.563Z,79.19
2016-10-29T08:57:03.627Z,79
2016-10-29T08:58:03.606Z,79.38
2016-10-29T08:59:03.648Z,79.38
2016-10-29T09:00:03.634Z,79.28
2016-10-29T09:01:03.649Z,79.48
2016-10-29T09:02:03.670Z,79.48
2016-10-29T09:03:03.691Z,79.1
2016-10-29T09:04:03.708Z,79.1
2016-10-29T09:05:03.721Z,78.91
2016-10-29T09:06:03.741Z,79.19
2016-10-29T09:07:03.754Z,79.67
2016-10-29T09:08:03.772Z,79.43
2016-10-29T09:09:03.795Z,79.19
2016-10-29T09:10:03.811Z,79.33
2016-10-29T09:11:03.830Z,78.94
2016-10-29T09:12:03.843Z,79.19
2016-10-29T09:13:04.177Z,79.04
2016-10-29T09:14:03.879Z,78.66
2016-10-29T09:15:03.902Z,79.52
2016-10-29T09:16:03.916Z,79.33
2016-10-29T09:17:03.931Z,79.33
2016-10-29T09:18:03.952Z,78.85
2016-10-29T09:19:03.969Z,79.33
2016-10-29T09:20:03.988Z,78.94
2016-10-29T09:21:04.008Z,78.85
2016-10-29T09:22:04.022Z,78.94
2016-10-29T09:23:04.152Z,79.04
2016-10-29T09:24:04.055Z,79.52
2016-10-29T09:25:04.080Z,78.94
2016-10-29T09:26:04.095Z,78.94
2016-10-29T09:27:04.112Z,78.66
2016-10-29T09:28:04.129Z,78.66
2016-10-29T09:29:04.157Z,78.75
2016-10-29T09:30:04.176Z,79.04
2016-10-29T09:31:04.183Z,78.85
2016-10-29T09:32:04.202Z,78.37
2016-10-29T09:33:04.337Z,79.14
2016-10-29T09:34:04.236Z,79.04
2016-10-29T09:35:04.255Z,79.14
2016-10-29T09:36:04.271Z,79.43
2016-10-29T09:37:04.288Z,78.56
2016-10-29T09:38:04.420Z,78.75
2016-10-29T09:39:04.326Z,78.7
2016-10-29T09:40:04.342Z,78.75
2016-10-29T09:41:04.363Z,78.41
2016-10-29T09:42:04.439Z,78.6
2016-10-29T09:43:04.398Z,78.79
2016-10-29T09:44:04.421Z,78.41
2016-10-29T09:45:04.435Z,78.7
2016-10-29T09:46:04.453Z,78.7
2016-10-29T09:47:04.471Z,78.51
2016-10-29T09:48:04.488Z,78.51
2016-10-29T09:49:04.508Z,78.6
2016-10-29T09:50:04.526Z,77.74
2016-10-29T09:51:04.542Z,78.31
2016-10-29T09:52:04.568Z,77.45
2016-10-29T09:53:04.576Z,77.65
2016-10-29T09:54:04.595Z,77.94
2016-10-29T09:55:04.616Z,77.65
2016-10-29T09:56:04.638Z,78.13
2016-10-29T09:57:04.652Z,78.03
2016-10-29T09:58:04.669Z,77.55
2016-10-29T09:59:04.690Z,77.45
2016-10-29T10:00:04.708Z,77.94
2016-10-29T10:01:04.731Z,76.98
2016-10-29T10:02:04.742Z,77.01
2016-10-29T10:03:04.762Z,77.4
2016-10-29T10:04:04.777Z,77.3
2016-10-29T10:05:04.810Z,77.45
2016-10-29T10:06:04.820Z,76.73
2016-10-29T10:07:04.946Z,77.69
2016-10-29T10:08:04.850Z,77.11
2016-10-29T10:09:04.876Z,77.01
2016-10-29T10:10:04.891Z,77.3
2016-10-29T10:11:04.948Z,77.11
2016-10-29T10:12:05.414Z,76.54
2016-10-29T10:13:04.946Z,77.01
2016-10-29T10:14:04.965Z,77.21
2016-10-29T10:15:04.985Z,76.92
2016-10-29T10:16:05.004Z,77.01
2016-10-29T10:17:05.016Z,76.25
2016-10-29T10:18:05.039Z,76.16
2016-10-29T10:19:05.057Z,76.25
2016-10-29T10:20:05.075Z,76.54
2016-10-29T10:21:05.091Z,76.64
2016-10-29T10:22:05.109Z,76.35
2016-10-29T10:23:05.128Z,76.35
2016-10-29T10:24:05.150Z,75.78
2016-10-29T10:25:05.168Z,75.68
2016-10-29T10:26:05.183Z,75.39
2016-10-29T10:27:05.203Z,75.3
2016-10-29T10:28:05.223Z,74.91
2016-10-29T10:29:05.243Z,75.1
2016-10-29T10:30:05.262Z,75.3
2016-10-29T10:31:05.280Z,75.14
2016-10-29T10:32:05.297Z,74.85
2016-10-29T10:33:05.335Z,75.14
2016-10-29T10:34:05.337Z,74.48
2016-10-29T10:35:05.354Z,73.71
2016-10-29T10:36:05.373Z,74.19
2016-10-29T10:37:05.402Z,74.57
2016-10-29T10:38:05.412Z,74.57
2016-10-29T10:39:05.427Z,74.48
2016-10-29T10:40:05.487Z,74.19
2016-10-29T10:41:05.465Z,74.28
2016-10-29T10:42:05.484Z,73.71
2016-10-29T10:43:05.503Z,73.52
2016-10-29T10:44:05.521Z,73.71
2016-10-29T10:45:05.542Z,73.04
2016-10-29T10:46:05.561Z,72.85
2016-10-29T10:47:05.576Z,73.14
2016-10-29T10:48:05.598Z,73.23
2016-10-29T10:49:05.617Z,72.47
2016-10-29T10:50:05.639Z,72.28
2016-10-29T10:51:05.656Z,72.56
2016-10-29T10:52:05.672Z,72.47
2016-10-29T10:53:05.689Z,72.18
2016-10-29T10:54:05.827Z,72.56
2016-10-29T10:55:05.929Z,72.08
2016-10-29T10:56:05.764Z,71.61
2016-10-29T10:57:05.766Z,71.51
2016-10-29T10:58:05.820Z,71.22
2016-10-29T10:59:05.820Z,71.42
2016-10-29T11:00:05.824Z,71.61
2016-10-29T11:01:05.843Z,70.84
2016-10-29T11:02:05.859Z,70.94
2016-10-29T11:03:05.880Z,71.67
2016-10-29T11:04:05.901Z,70.81
2016-10-29T11:05:05.922Z,71.19
2016-10-29T11:06:05.938Z,71.67
2016-10-29T11:07:05.961Z,71.47
2016-10-29T11:08:06.056Z,71.38
2016-10-29T11:09:05.999Z,71.28
2016-10-29T11:10:06.033Z,71.28
2016-10-29T11:11:06.043Z,71
2016-10-29T11:12:06.053Z,71
2016-10-29T11:13:06.100Z,71.09
2016-10-29T11:14:06.088Z,71.38
2016-10-29T11:15:06.108Z,71.76
2016-10-29T11:16:06.125Z,71.19
2016-10-29T11:17:06.146Z,71.76
2016-10-29T11:18:06.166Z,71.57
2016-10-29T11:19:06.182Z,71
2016-10-29T11:20:06.205Z,71.19
2016-10-29T11:21:06.224Z,70.81
2016-10-29T11:22:06.240Z,70.56
2016-10-29T11:23:06.265Z,71
2016-10-29T11:24:06.276Z,70.14
2016-10-29T11:25:06.297Z,70.84
2016-10-29T11:26:06.315Z,70.36
2016-10-29T11:27:06.333Z,70.56
2016-10-29T11:28:06.356Z,70.75
2016-10-29T11:29:06.374Z,69.98
2016-10-29T11:30:06.393Z,70.27
2016-10-29T11:31:06.408Z,69.98
2016-10-29T11:32:06.428Z,69.7
2016-10-29T11:33:06.450Z,69.98
2016-10-29T11:34:06.475Z,69.89
2016-10-29T11:35:06.484Z,69.89
2016-10-29T11:36:06.503Z,69.79
2016-10-29T11:37:06.525Z,70.07
2016-10-29T11:38:06.545Z,70.27
2016-10-29T11:39:06.567Z,70.27
2016-10-29T11:40:06.582Z,70.65
2016-10-29T11:41:06.606Z,69.98
2016-10-29T11:42:06.626Z,70.27
2016-10-29T11:43:06.641Z,69.5
2016-10-29T11:44:06.655Z,69.41
2016-10-29T11:45:06.676Z,69.89
2016-10-29T11:46:06.697Z,70.36
2016-10-29T11:47:06.719Z,70.07
2016-10-29T11:48:06.732Z,69.98
2016-10-29T11:49:06.753Z,69.89
2016-10-29T11:50:06.822Z,69.41
2016-10-29T11:51:06.792Z,69.5
2016-10-29T11:52:06.808Z,69.7
2016-10-29T11:53:06.832Z,68.93
2016-10-29T11:54:06.850Z,68.35
2016-10-29T11:55:06.865Z,68.16
2016-10-29T11:56:06.886Z,68.55
2016-10-29T11:57:06.906Z,68.16
2016-10-29T11:58:06.924Z,68.45
2016-10-29T11:59:06.942Z,67.97
2016-10-29T12:00:06.963Z,67.97
2016-10-29T12:01:06.983Z,68.07
2016-10-29T12:02:07.003Z,68.16
2016-10-29T12:03:07.020Z,66.92
2016-10-29T12:04:07.041Z,67.02
2016-10-29T12:05:07.059Z,67.3
2016-10-29T12:06:07.075Z,67.49
2016-10-29T12:07:07.099Z,66.92
2016-10-29T12:08:07.115Z,66.73
2016-10-29T12:09:07.136Z,66.83
2016-10-29T12:10:07.154Z,66.63
2016-10-29T12:11:07.173Z,66.73
2016-10-29T12:12:07.194Z,66.25
2016-10-29T12:13:07.218Z,65.97
2016-10-29T12:14:07.231Z,65.71
2016-10-29T12:15:07.250Z,65.77
2016-10-29T12:16:07.268Z,65.58
2016-10-29T12:17:07.288Z,65.87
2016-10-29T12:18:07.309Z,66.16
2016-10-29T12:19:07.327Z,65.58
2016-10-29T12:20:07.348Z,65.77
2016-10-29T12:21:07.366Z,66.16
2016-10-29T12:22:07.387Z,65.87
2016-10-29T12:23:07.440Z,65.68
2016-10-29T12:24:07.425Z,65.87
2016-10-29T12:25:07.443Z,66.16
2016-10-29T12:26:07.466Z,65.87
2016-10-29T12:27:07.480Z,65.58
2016-10-29T12:28:07.535Z,65.97
2016-10-29T12:29:07.559Z,65.3
2016-10-29T12:30:07.548Z,65.3
2016-10-29T12:31:07.563Z,65.39
2016-10-29T12:32:07.576Z,65.39
2016-10-29T12:33:07.597Z,65.11
2016-10-29T12:34:07.618Z,65.39
2016-10-29T12:35:07.635Z,65.39
2016-10-29T12:36:07.655Z,65.87
2016-10-29T12:37:07.680Z,65.68
2016-10-29T12:38:07.693Z,65.58
2016-10-29T12:39:07.721Z,65.2
2016-10-29T12:40:07.742Z,65.87
2016-10-29T12:41:07.956Z,65.87
2016-10-29T12:42:07.772Z,65.68
2016-10-29T12:43:07.791Z,65.68
2016-10-29T12:44:07.808Z,66.06
2016-10-29T12:45:07.884Z,65.77
2016-10-29T12:46:07.849Z,65.58
2016-10-29T12:47:08.183Z,65.39
2016-10-29T12:48:07.886Z,64.82
2016-10-29T12:49:07.905Z,65.2
2016-10-29T12:50:07.927Z,64.82
2016-10-29T12:51:07.952Z,64.62
2016-10-29T12:52:07.964Z,64.72
2016-10-29T12:53:07.987Z,65.68
2016-10-29T12:54:07.999Z,65.48
2016-10-29T12:55:08.121Z,65.3
2016-10-29T12:56:08.041Z,65.42
2016-10-29T12:57:08.061Z,65.42